Time;durP1;ratioP1;P1;durP2;ratioP2;P2;SDS_P1;SDS_P2;PMS_P1;PMS_P2;Temp;Humidity;BMP_temperature;BMP_pressure;BME280_temperature;BME280_humidity;BME280_pressure;Samples;Min_cycle;Max_cycle;Signal;HPM_P1;HPM_P2
2022/01/19 00:02:22;;;;;;;5.83;3.57;;;5.80;99.90;;;;;;5005863;28;20177;-75
2022/01/19 00:04:49;;;;;;;6.40;3.87;;;5.90;99.90;;;;;;5038341;28;20276;-74
2022/01/19 00:07:15;;;;;;;7.37;4.10;;;6.00;99.90;;;;;;5022772;28;20257;-80
2022/01/19 00:09:40;;;;;;;8.23;4.07;;;6.00;99.90;;;;;;5018750;28;20240;-79
2022/01/19 00:12:08;;;;;;;6.17;3.80;;;5.70;99.90;;;;;;5001020;28;20212;-79
2022/01/19 00:14:33;;;;;;;7.23;4.37;;;5.50;99.90;;;;;;4998668;28;20181;-79
2022/01/19 00:16:59;;;;;;;6.93;4.03;;;5.40;99.90;;;;;;5041182;28;20255;-74
2022/01/19 00:19:25;;;;;;;7.27;4.60;;;5.10;99.90;;;;;;5052080;28;20205;-76
2022/01/19 00:21:51;;;;;;;7.00;4.27;;;5.00;99.90;;;;;;5019321;28;20177;-74
2022/01/19 00:24:17;;;;;;;7.07;4.43;;;5.10;99.90;;;;;;5052217;28;20235;-74
2022/01/19 00:26:43;;;;;;;6.97;4.20;;;4.90;99.90;;;;;;5002847;28;20637;-80
2022/01/19 00:29:09;;;;;;;8.30;4.83;;;4.90;99.90;;;;;;5055920;28;20189;-74
2022/01/19 00:31:35;;;;;;;6.57;4.10;;;5.00;99.90;;;;;;5061281;28;20774;-75
2022/01/19 00:34:04;;;;;;;5.77;3.70;;;5.30;99.90;;;;;;5054519;28;20766;-80
2022/01/19 00:36:31;;;;;;;6.13;4.13;;;5.40;99.90;;;;;;5070476;28;20181;-75
2022/01/19 00:38:56;;;;;;;6.33;4.37;;;5.60;99.90;;;;;;5054014;28;20664;-74
2022/01/19 00:41:22;;;;;;;7.37;4.20;;;5.10;99.90;;;;;;5021224;28;20180;-74
2022/01/19 00:43:48;;;;;;;7.67;4.20;;;4.80;99.90;;;;;;5037756;28;20176;-79
2022/01/19 00:46:15;;;;;;;4.90;3.57;;;5.10;99.90;;;;;;5020862;28;20595;-76
2022/01/19 00:48:41;;;;;;;7.90;4.60;;;5.20;99.90;;;;;;5071529;28;20174;-78
2022/01/19 00:51:08;;;;;;;7.50;4.33;;;5.30;99.90;;;;;;5071130;28;20628;-74
2022/01/19 00:53:34;;;;;;;6.93;4.03;;;5.30;99.90;;;;;;5038363;28;20176;-79
2022/01/19 00:56:00;;;;;;;7.50;3.70;;;5.40;99.90;;;;;;5037614;28;20724;-75
2022/01/19 00:58:26;;;;;;;5.20;3.97;;;5.40;99.90;;;;;;5070746;28;20196;-74
2022/01/19 01:00:51;;;;;;;6.60;4.27;;;5.40;99.90;;;;;;5054398;28;20689;-74
2022/01/19 01:03:18;;;;;;;6.40;3.93;;;5.40;99.90;;;;;;5054343;28;20168;-75
2022/01/19 01:05:44;;;;;;;7.03;3.83;;;5.30;99.90;;;;;;5047067;28;20166;-79
2022/01/19 01:08:10;;;;;;;6.67;4.37;;;5.60;99.90;;;;;;5014349;28;20170;-73
2022/01/19 01:10:42;;;;;;;6.57;3.57;;;5.60;99.90;;;;;;5032114;28;20232;-74
2022/01/19 01:16:17;;;;;;;6.50;4.13;;;5.60;99.90;;;;;;5017155;28;20198;-74
2022/01/19 01:18:43;;;;;;;6.37;4.30;;;5.70;99.90;;;;;;5047194;28;20548;-74
2022/01/19 01:21:09;;;;;;;6.40;4.33;;;5.70;99.90;;;;;;5014097;28;20193;-79
2022/01/19 01:23:35;;;;;;;7.50;4.30;;;5.60;99.90;;;;;;5014133;28;20188;-74
2022/01/19 01:26:03;;;;;;;7.97;4.73;;;5.40;99.90;;;;;;5013203;28;20633;-75
2022/01/19 01:28:29;;;;;;;6.50;4.07;;;5.30;99.90;;;;;;5014535;28;20170;-80
2022/01/19 01:30:54;;;;;;;8.20;5.00;;;5.30;99.90;;;;;;4997850;28;20192;-74
2022/01/19 01:33:20;;;;;;;5.90;4.23;;;5.20;99.90;;;;;;5030409;28;20193;-80
2022/01/19 01:35:47;;;;;;;6.00;4.50;;;5.20;99.90;;;;;;5030569;28;20538;-79
2022/01/19 01:38:13;;;;;;;6.70;4.73;;;5.20;99.90;;;;;;5013960;28;20178;-74
2022/01/19 01:40:39;;;;;;;7.67;4.47;;;5.10;99.90;;;;;;5031594;28;20212;-74
2022/01/19 01:43:07;;;;;;;8.13;4.67;;;5.20;99.90;;;;;;5030214;28;20181;-78
2022/01/19 01:45:36;;;;;;;11.20;4.40;;;5.30;99.90;;;;;;5013926;28;20276;-80
2022/01/19 01:53:27;;;;;;;7.47;4.70;;;5.20;99.90;;;;;;5031380;28;20173;-75
2022/01/19 01:56:08;;;;;;;7.27;4.17;;;5.30;99.90;;;;;;5030010;28;20178;-75
2022/01/19 01:58:40;;;;;;;10.33;4.97;;;5.30;99.90;;;;;;5031660;28;20239;-79
2022/01/19 02:01:08;;;;;;;7.87;4.70;;;5.30;99.90;;;;;;5030650;28;20178;-79
2022/01/19 02:03:39;;;;;;;6.93;4.50;;;5.10;99.90;;;;;;5013651;28;20552;-74
2022/01/19 02:06:29;;;;;;;8.37;5.07;;;5.10;99.90;;;;;;5033782;28;20674;-74
2022/01/19 02:24:28;;;;;;;8.33;4.53;;;5.10;99.90;;;;;;5049678;28;20185;-74
2022/01/19 02:40:23;;;;;;;7.83;4.87;;;5.20;99.90;;;;;;5069485;28;20202;-79
2022/01/19 02:43:07;;;;;;;6.90;4.93;;;5.20;99.90;;;;;;5052856;28;20180;-79
2022/01/19 02:51:06;;;;;;;8.17;4.97;;;5.20;99.90;;;;;;5069588;28;20176;-75
2022/01/19 02:53:36;;;;;;;6.07;4.60;;;5.20;99.90;;;;;;5069163;28;20679;-79
2022/01/19 02:56:09;;;;;;;7.87;5.80;;;5.10;99.90;;;;;;5052349;28;20574;-74
2022/01/19 02:58:41;;;;;;;8.53;5.33;;;5.00;99.90;;;;;;5053097;28;20184;-74
2022/01/19 03:09:22;;;;;;;7.83;5.33;;;4.90;99.90;;;;;;5039142;28;20181;-75
2022/01/19 03:11:48;;;;;;;9.10;5.33;;;4.80;99.90;;;;;;5039387;28;20173;-74
2022/01/19 03:14:14;;;;;;;9.63;5.70;;;4.80;99.90;;;;;;5009600;28;20181;-79
2022/01/19 03:16:40;;;;;;;8.43;5.00;;;4.80;99.90;;;;;;5026932;28;20205;-79
2022/01/19 03:19:08;;;;;;;9.03;5.27;;;4.80;99.90;;;;;;5048991;28;20246;-73
2022/01/19 03:21:34;;;;;;;9.43;5.00;;;4.40;99.90;;;;;;5032474;28;20177;-75
2022/01/19 03:24:01;;;;;;;8.60;5.37;;;4.40;99.90;;;;;;5048914;28;20265;-79
2022/01/19 03:26:27;;;;;;;9.57;5.37;;;4.50;99.90;;;;;;5050529;28;20573;-79
2022/01/19 03:28:53;;;;;;;9.73;5.43;;;4.50;99.90;;;;;;5016001;28;20545;-79
2022/01/19 03:31:19;;;;;;;9.20;5.17;;;4.60;99.90;;;;;;5033045;28;20178;-75
2022/01/19 03:33:45;;;;;;;9.47;5.47;;;4.70;99.90;;;;;;5031371;28;20170;-75
2022/01/19 03:36:11;;;;;;;6.90;4.17;;;4.50;99.90;;;;;;4996226;28;20220;-79
2022/01/19 03:38:37;;;;;;;9.43;4.83;;;4.80;99.90;;;;;;5012670;28;20170;-80
2022/01/19 03:41:03;;;;;;;10.67;5.73;;;4.80;99.90;;;;;;5016521;28;20254;-80
2022/01/19 03:43:28;;;;;;;11.57;6.53;;;4.80;99.90;;;;;;5050487;28;20181;-80
2022/01/19 03:45:58;;;;;;;17.27;6.97;;;4.80;99.90;;;;;;5032091;28;20181;-79
2022/01/19 03:48:43;;;;;;;11.77;6.90;;;4.80;99.90;;;;;;5027246;28;20177;-74
2022/01/19 03:51:09;;;;;;;10.20;6.20;;;4.70;99.90;;;;;;5037726;28;20182;-81
2022/01/19 03:53:35;;;;;;;11.83;7.20;;;4.60;99.90;;;;;;5035896;28;20181;-79
2022/01/19 03:56:02;;;;;;;10.50;6.80;;;4.50;99.90;;;;;;5053891;28;20252;-74
2022/01/19 03:58:27;;;;;;;11.27;6.63;;;4.50;99.90;;;;;;5036083;28;20243;-78
2022/01/19 04:00:56;;;;;;;12.37;6.17;;;4.30;99.90;;;;;;5035701;28;20290;-78
2022/01/19 04:03:33;;;;;;;11.43;6.70;;;4.30;99.90;;;;;;5053190;28;20177;-74
2022/01/19 04:06:24;;;;;;;11.80;6.13;;;4.60;99.90;;;;;;5034765;28;20184;-75
2022/01/19 04:08:49;;;;;;;9.57;6.03;;;4.50;99.90;;;;;;5019521;28;20193;-80
2022/01/19 04:11:17;;;;;;;10.40;5.90;;;4.40;99.90;;;;;;5015652;28;20200;-74
2022/01/19 04:16:24;;;;;;;13.17;6.70;;;4.40;99.90;;;;;;5047591;28;20249;-73
2022/01/19 04:18:57;;;;;;;11.80;6.17;;;4.50;99.90;;;;;;5052288;28;20705;-79
2022/01/19 04:21:23;;;;;;;9.03;5.43;;;4.60;99.90;;;;;;5052126;28;20173;-74
2022/01/19 04:23:49;;;;;;;12.20;6.37;;;4.50;99.90;;;;;;5035170;28;20173;-74
2022/01/19 04:26:15;;;;;;;13.60;5.80;;;4.10;99.90;;;;;;5051381;28;20200;-80
2022/01/19 04:28:40;;;;;;;12.27;5.57;;;4.10;99.90;;;;;;5035517;28;20177;-80
2022/01/19 04:31:06;;;;;;;11.47;6.27;;;4.20;99.90;;;;;;5052302;28;20254;-77
2022/01/19 04:33:32;;;;;;;9.77;6.00;;;4.30;99.90;;;;;;5052473;28;20725;-75
2022/01/19 04:36:19;;;;;;;11.97;6.07;;;4.20;99.90;;;;;;5037728;28;20222;-79
2022/01/19 05:06:01;;;;;;;7.73;5.17;;;4.30;99.90;;;;;;5048672;28;20184;-75
2022/01/19 05:13:39;;;;;;;8.10;5.30;;;4.20;99.90;;;;;;5032484;28;20269;-78
2022/01/19 05:16:05;;;;;;;7.60;4.77;;;4.20;99.90;;;;;;5014172;28;20276;-79
2022/01/19 05:18:32;;;;;;;7.77;4.57;;;4.30;99.90;;;;;;5014569;28;20265;-79
2022/01/19 05:20:58;;;;;;;7.57;5.27;;;4.40;99.90;;;;;;5031058;28;20276;-74
2022/01/19 05:23:24;;;;;;;8.30;5.73;;;4.50;99.90;;;;;;5014375;28;20181;-78
2022/01/19 05:25:50;;;;;;;7.40;4.77;;;4.50;99.90;;;;;;5030884;28;20247;-79
2022/01/19 05:28:16;;;;;;;11.60;5.87;;;4.40;99.90;;;;;;5014351;28;20173;-74
2022/01/19 05:30:42;;;;;;;10.53;5.43;;;4.40;99.90;;;;;;5030594;28;20628;-76
2022/01/19 05:33:08;;;;;;;9.10;6.10;;;4.40;99.90;;;;;;5030700;28;20261;-80
2022/01/19 05:35:34;;;;;;;8.67;5.50;;;4.40;99.90;;;;;;5030643;28;20689;-74
2022/01/19 05:38:00;;;;;;;9.97;5.57;;;3.90;99.90;;;;;;5013768;28;20178;-76
2022/01/19 05:40:26;;;;;;;10.30;6.10;;;4.00;99.90;;;;;;5014182;28;20202;-79
2022/01/19 05:42:53;;;;;;;12.17;5.87;;;4.20;99.90;;;;;;5030765;28;20653;-74
2022/01/19 05:45:19;;;;;;;9.53;6.00;;;4.30;99.90;;;;;;5014127;28;20185;-74
2022/01/19 05:47:48;;;;;;;9.20;5.40;;;4.30;99.90;;;;;;5030293;28;20206;-79
2022/01/19 05:50:14;;;;;;;7.93;5.63;;;4.20;99.90;;;;;;5013820;28;20201;-76
2022/01/19 05:52:40;;;;;;;7.63;5.10;;;4.00;99.90;;;;;;5013628;28;20551;-79
2022/01/19 05:55:06;;;;;;;12.13;6.23;;;4.10;99.90;;;;;;5013637;28;20189;-80
2022/01/19 05:57:32;;;;;;;10.60;5.70;;;4.20;99.90;;;;;;4997389;28;20595;-79
2022/01/19 05:59:58;;;;;;;11.40;6.10;;;4.30;99.90;;;;;;5029989;28;20194;-75
2022/01/19 06:02:24;;;;;;;9.00;5.87;;;4.20;99.90;;;;;;5013227;28;20230;-75
2022/01/19 06:04:50;;;;;;;10.50;5.50;;;4.30;99.90;;;;;;4997200;28;20182;-76
2022/01/19 06:07:16;;;;;;;15.57;5.90;;;4.30;99.90;;;;;;4997261;28;20272;-75
2022/01/19 06:12:10;;;;;;;9.73;6.10;;;4.30;99.90;;;;;;5012921;28;20310;-74
2022/01/19 06:14:39;;;;;;;10.80;6.30;;;4.30;99.90;;;;;;5030681;28;20165;-79
2022/01/19 06:17:06;;;;;;;7.40;5.40;;;4.30;99.90;;;;;;5032692;28;20181;-75
2022/01/19 06:19:33;;;;;;;9.80;6.20;;;4.30;99.90;;;;;;5049510;28;20251;-78
2022/01/19 06:22:00;;;;;;;13.87;5.83;;;4.30;99.90;;;;;;5032686;28;20234;-74
2022/01/19 06:24:27;;;;;;;10.73;6.43;;;4.10;99.90;;;;;;5049591;28;20173;-76
2022/01/19 06:26:53;;;;;;;8.87;6.10;;;3.70;99.90;;;;;;5049689;28;20588;-80
2022/01/19 06:29:19;;;;;;;14.00;5.80;;;3.90;99.90;;;;;;5032171;28;20184;-79
2022/01/19 06:31:45;;;;;;;12.53;6.27;;;4.00;99.90;;;;;;5040097;28;20186;-75
2022/01/19 06:34:11;;;;;;;10.23;5.83;;;4.20;99.90;;;;;;5066581;28;20655;-77
2022/01/19 06:36:36;;;;;;;9.53;6.07;;;4.10;99.90;;;;;;5039862;28;20227;-79
2022/01/19 06:39:04;;;;;;;9.37;5.57;;;4.10;99.90;;;;;;5001469;28;20200;-79
2022/01/19 06:41:30;;;;;;;11.13;6.40;;;4.20;99.90;;;;;;5015129;28;20209;-79
2022/01/19 06:43:59;;;;;;;13.33;6.63;;;4.40;99.90;;;;;;5036451;28;20181;-79
2022/01/19 06:46:25;;;;;;;14.47;6.87;;;4.40;99.90;;;;;;5033843;28;20223;-75
2022/01/19 06:48:51;;;;;;;9.07;5.80;;;4.40;99.90;;;;;;5027532;28;20173;-75
2022/01/19 06:51:17;;;;;;;11.30;7.03;;;4.30;99.90;;;;;;5031916;28;20184;-75
2022/01/19 06:53:43;;;;;;;10.63;6.00;;;4.30;99.90;;;;;;4998500;28;20185;-80
2022/01/19 06:56:08;;;;;;;10.87;5.90;;;3.90;99.90;;;;;;5032863;28;20842;-79
2022/01/19 06:58:35;;;;;;;11.17;6.63;;;3.60;99.90;;;;;;5026337;28;20196;-75
2022/01/19 07:01:00;;;;;;;12.43;6.50;;;3.70;99.90;;;;;;5034773;28;20216;-79
2022/01/19 07:03:26;;;;;;;10.97;5.87;;;3.80;99.90;;;;;;5033069;28;20189;-79
2022/01/19 07:05:52;;;;;;;11.83;6.43;;;3.60;99.90;;;;;;5029322;28;20532;-78
2022/01/19 07:08:18;;;;;;;9.67;6.07;;;3.60;99.90;;;;;;5012832;28;20552;-76
2022/01/19 07:10:44;;;;;;;8.23;5.73;;;3.50;99.90;;;;;;5028984;28;20180;-79
2022/01/19 07:13:10;;;;;;;7.90;5.63;;;3.80;99.90;;;;;;5012669;28;20699;-79
2022/01/19 07:15:36;;;;;;;8.63;5.00;;;4.00;99.90;;;;;;5020497;28;20205;-75
2022/01/19 07:18:03;;;;;;;6.43;4.70;;;4.10;99.90;;;;;;5034901;28;20181;-75
2022/01/19 07:20:30;;;;;;;9.57;5.67;;;4.10;99.90;;;;;;5015658;28;20214;-76
2022/01/19 07:23:01;;;;;;;9.07;5.40;;;4.00;99.90;;;;;;5043731;28;20170;-76
2022/01/19 07:25:28;;;;;;;10.27;7.00;;;3.80;99.90;;;;;;5030902;28;20409;-74
2022/01/19 07:27:55;;;;;;;10.07;6.00;;;3.90;99.90;;;;;;5034565;28;20282;-75
2022/01/19 07:30:21;;;;;;;10.63;5.77;;;4.00;99.90;;;;;;5015922;28;20227;-75
2022/01/19 07:32:48;;;;;;;11.60;6.10;;;4.10;99.90;;;;;;5034614;28;20775;-76
2022/01/19 07:35:16;;;;;;;11.23;6.07;;;4.20;99.90;;;;;;5034249;28;20228;-77
2022/01/19 07:37:42;;;;;;;9.53;6.47;;;4.30;99.90;;;;;;5031962;28;20185;-75
2022/01/19 07:40:09;;;;;;;9.87;6.03;;;4.30;99.90;;;;;;5039112;28;20201;-74
2022/01/19 07:42:34;;;;;;;9.03;5.90;;;4.20;99.90;;;;;;5015714;28;20621;-76
2022/01/19 07:45:00;;;;;;;9.30;5.27;;;4.30;99.90;;;;;;5018734;28;20242;-76
2022/01/19 07:47:30;;;;;;;8.37;5.80;;;4.00;99.90;;;;;;5053557;28;20214;-74
2022/01/19 07:49:57;;;;;;;8.13;5.67;;;4.10;99.90;;;;;;5035479;28;20190;-74
2022/01/19 07:52:25;;;;;;;13.27;6.03;;;4.00;99.90;;;;;;5035458;28;20173;-78
2022/01/19 07:54:52;;;;;;;8.03;5.40;;;4.20;99.90;;;;;;5039552;28;20245;-75
2022/01/19 07:57:19;;;;;;;10.20;5.90;;;4.30;99.90;;;;;;5035174;28;20204;-76
2022/01/19 07:59:45;;;;;;;8.60;5.83;;;4.30;99.90;;;;;;5034259;28;20715;-78
2022/01/19 08:02:13;;;;;;;11.57;6.27;;;4.30;99.90;;;;;;5021048;28;20174;-78
2022/01/19 08:04:40;;;;;;;10.37;5.87;;;4.30;99.90;;;;;;5014539;28;20174;-75
2022/01/19 08:07:06;;;;;;;8.60;5.63;;;4.30;99.90;;;;;;5031778;28;20190;-78
2022/01/19 08:09:33;;;;;;;10.40;5.87;;;4.30;99.90;;;;;;5042598;28;20521;-78
2022/01/19 08:11:59;;;;;;;9.77;6.17;;;4.10;99.90;;;;;;5016852;28;20212;-78
2022/01/19 08:14:25;;;;;;;8.67;5.90;;;4.20;99.90;;;;;;5039377;28;20209;-76
2022/01/19 08:16:52;;;;;;;13.47;6.20;;;4.20;99.90;;;;;;5023492;28;20224;-77
2022/01/19 08:19:18;;;;;;;10.07;6.57;;;4.40;99.90;;;;;;5023329;28;20193;-78
2022/01/19 08:21:45;;;;;;;10.63;6.03;;;4.40;99.90;;;;;;5051003;28;20280;-75
2022/01/19 08:24:11;;;;;;;10.77;6.77;;;4.40;99.90;;;;;;5051671;28;20169;-77
2022/01/19 08:26:37;;;;;;;8.90;6.00;;;4.40;99.90;;;;;;5034914;28;20555;-77
2022/01/19 08:29:06;;;;;;;9.87;6.03;;;4.20;99.90;;;;;;5051909;28;20170;-80
2022/01/19 08:31:33;;;;;;;18.83;6.57;;;4.20;99.90;;;;;;5033855;28;20196;-78
2022/01/19 08:33:59;;;;;;;9.53;6.17;;;4.30;99.90;;;;;;5034059;28;20232;-79
2022/01/19 08:36:26;;;;;;;9.83;6.90;;;4.40;99.90;;;;;;5034307;28;20177;-78
2022/01/19 08:38:52;;;;;;;11.50;6.40;;;4.40;99.90;;;;;;5030525;28;20181;-76
2022/01/19 08:41:18;;;;;;;9.87;6.33;;;4.50;99.90;;;;;;5034087;28;20211;-76
2022/01/19 08:43:44;;;;;;;12.20;7.40;;;4.50;99.90;;;;;;5023897;28;20189;-76
2022/01/19 08:46:09;;;;;;;11.00;7.00;;;4.60;99.90;;;;;;5016158;28;20601;-80
2022/01/19 08:48:35;;;;;;;9.53;7.10;;;4.60;99.90;;;;;;5042337;28;20196;-77
2022/01/19 08:51:02;;;;;;;11.63;7.40;;;4.50;99.90;;;;;;5031032;28;20201;-76
2022/01/19 08:53:28;;;;;;;14.23;7.07;;;4.30;99.90;;;;;;5039079;28;20186;-76
2022/01/19 08:55:54;;;;;;;10.37;7.60;;;4.30;99.90;;;;;;5050216;28;20177;-78
2022/01/19 08:58:19;;;;;;;11.17;6.90;;;4.50;99.90;;;;;;5017201;28;20645;-78
2022/01/19 09:00:47;;;;;;;9.87;6.40;;;4.50;99.90;;;;;;5030344;28;20284;-76
2022/01/19 09:03:15;;;;;;;12.57;6.97;;;4.40;99.90;;;;;;5030071;28;20281;-75
2022/01/19 09:05:41;;;;;;;12.13;7.50;;;4.20;99.90;;;;;;5034817;28;20166;-79
2022/01/19 09:08:08;;;;;;;12.33;7.80;;;4.20;99.90;;;;;;5017966;28;20184;-75
2022/01/19 09:10:34;;;;;;;14.27;7.97;;;4.40;99.90;;;;;;5033635;28;20181;-78
2022/01/19 09:13:00;;;;;;;11.77;7.13;;;4.20;99.90;;;;;;5049348;28;20196;-78
2022/01/19 09:15:27;;;;;;;10.93;6.90;;;4.30;99.90;;;;;;5027592;28;20283;-78
2022/01/19 09:17:56;;;;;;;10.57;7.03;;;4.40;99.90;;;;;;5015641;28;20182;-77
2022/01/19 09:20:22;;;;;;;11.60;7.70;;;4.40;99.90;;;;;;5049352;28;20216;-76
2022/01/19 09:22:49;;;;;;;14.47;7.77;;;4.60;99.90;;;;;;5014255;28;20696;-79
2022/01/19 09:25:15;;;;;;;13.10;7.13;;;4.70;99.90;;;;;;5046104;28;20181;-79
2022/01/19 09:27:41;;;;;;;10.70;7.00;;;4.80;99.90;;;;;;5038990;28;20174;-79
2022/01/19 09:30:14;;;;;;;12.63;6.87;;;4.70;99.90;;;;;;5048014;28;20176;-78
2022/01/19 09:32:55;;;;;;;11.83;7.80;;;4.70;99.90;;;;;;5028954;28;20178;-75
2022/01/19 09:35:25;;;;;;;10.40;6.83;;;4.90;99.90;;;;;;5045404;28;20723;-75
2022/01/19 09:37:51;;;;;;;14.30;6.93;;;4.90;99.90;;;;;;5038795;28;20186;-78
2022/01/19 09:40:17;;;;;;;16.13;7.10;;;5.00;99.90;;;;;;5039955;28;20205;-77
2022/01/19 09:42:45;;;;;;;13.20;6.90;;;4.90;99.90;;;;;;5031424;28;20169;-75
2022/01/19 09:45:11;;;;;;;13.80;6.90;;;5.10;99.90;;;;;;5018239;28;20173;-79
2022/01/19 09:47:36;;;;;;;15.00;7.33;;;5.10;99.90;;;;;;5031718;28;20226;-76
2022/01/19 09:50:04;;;;;;;11.80;7.63;;;4.90;99.90;;;;;;5012503;28;20173;-80
2022/01/19 09:52:30;;;;;;;10.47;7.17;;;4.70;99.90;;;;;;5016253;28;20181;-79
2022/01/19 09:54:56;;;;;;;12.23;6.93;;;4.80;99.90;;;;;;5013148;28;20189;-75
2022/01/19 09:57:22;;;;;;;11.60;6.77;;;4.70;99.90;;;;;;5048476;28;20734;-79
2022/01/19 09:59:48;;;;;;;13.43;6.87;;;4.80;99.90;;;;;;5048666;28;20208;-77
2022/01/19 10:02:16;;;;;;;12.20;6.50;;;5.10;99.90;;;;;;5041082;28;20187;-74
2022/01/19 10:04:46;;;;;;;11.03;6.83;;;5.10;99.90;;;;;;4997452;28;20182;-75
2022/01/19 10:07:18;;;;;;;9.77;7.07;;;5.00;99.90;;;;;;5037809;28;20177;-76
2022/01/19 10:09:57;;;;;;;8.80;6.53;;;5.10;99.90;;;;;;5028663;28;20571;-79
2022/01/19 10:18:21;;;;;;;10.40;6.90;;;5.50;99.90;;;;;;5030514;28;20197;-76
2022/01/19 10:21:03;;;;;;;9.43;6.40;;;5.80;99.90;;;;;;4996633;28;20260;-78
2022/01/19 10:23:39;;;;;;;9.67;6.47;;;6.00;99.90;;;;;;5016655;28;20202;-75
2022/01/19 10:26:08;;;;;;;11.13;6.37;;;5.90;99.90;;;;;;5023919;28;20998;-75
2022/01/19 10:29:07;;;;;;;9.33;6.33;;;6.00;99.90;;;;;;5021310;28;20208;-76
2022/01/19 10:31:37;;;;;;;10.17;6.50;;;6.00;99.90;;;;;;5035054;28;20173;-81
2022/01/19 10:34:15;;;;;;;8.30;5.60;;;6.10;99.90;;;;;;5019943;28;20189;-78
2022/01/19 10:36:43;;;;;;;8.50;5.27;;;6.20;99.90;;;;;;5041029;28;20178;-75
2022/01/19 10:39:09;;;;;;;10.37;6.10;;;6.20;99.90;;;;;;5042255;28;20651;-77
2022/01/19 10:41:34;;;;;;;8.77;6.10;;;5.90;99.90;;;;;;5041889;28;20177;-75
2022/01/19 10:44:00;;;;;;;10.87;6.77;;;6.30;99.90;;;;;;5009337;28;20330;-76
2022/01/19 10:46:31;;;;;;;10.90;6.50;;;6.50;99.90;;;;;;5012533;28;20189;-79
2022/01/19 10:48:57;;;;;;;13.20;6.83;;;6.60;99.90;;;;;;5027166;28;20185;-76
2022/01/19 10:51:23;;;;;;;8.93;6.47;;;6.60;99.90;;;;;;5033542;28;20180;-74
2022/01/19 10:54:19;;;;;;;12.77;6.80;;;6.70;99.90;;;;;;5037809;28;20178;-76
2022/01/19 10:56:54;;;;;;;15.40;7.63;;;6.80;99.90;;;;;;5014641;28;20591;-77
2022/01/19 10:59:26;;;;;;;12.97;8.63;;;6.80;99.90;;;;;;5024878;28;20197;-76
2022/01/19 11:01:56;;;;;;;14.77;7.27;;;6.90;99.90;;;;;;5025768;28;20169;-77
2022/01/19 11:04:27;;;;;;;11.93;7.03;;;6.90;99.90;;;;;;5025596;28;20174;-77
2022/01/19 11:06:55;;;;;;;10.73;6.97;;;7.10;99.90;;;;;;5011125;28;20640;-73
2022/01/19 11:09:24;;;;;;;12.33;7.17;;;7.10;99.90;;;;;;5010514;28;20223;-75
2022/01/19 11:11:53;;;;;;;13.33;7.73;;;7.00;99.90;;;;;;5032773;28;20223;-75
2022/01/19 11:14:19;;;;;;;14.57;7.47;;;7.00;99.90;;;;;;5012096;28;20215;-77
2022/01/19 11:16:45;;;;;;;9.83;6.90;;;7.20;99.90;;;;;;5031113;28;20275;-77
2022/01/19 11:19:12;;;;;;;10.53;8.13;;;7.30;99.90;;;;;;5028573;28;20176;-76
2022/01/19 11:21:56;;;;;;;14.83;7.23;;;7.20;99.90;;;;;;4995768;28;20228;-77
2022/01/19 11:24:56;;;;;;;13.90;6.80;;;7.30;99.90;;;;;;5012138;28;20170;-78
2022/01/19 11:27:25;;;;;;;12.10;6.70;;;7.30;99.90;;;;;;5028526;28;20673;-77
2022/01/19 11:30:36;;;;;;;11.93;6.67;;;7.30;99.90;;;;;;5028704;28;20174;-74
2022/01/19 11:33:11;;;;;;;10.13;6.13;;;7.40;99.90;;;;;;5013184;28;20186;-77
2022/01/19 11:35:38;;;;;;;10.87;6.70;;;7.40;99.90;;;;;;5028122;28;20173;-76
2022/01/19 11:38:37;;;;;;;14.50;6.50;;;7.40;99.90;;;;;;4996144;28;20192;-75
2022/01/19 11:41:37;;;;;;;12.03;6.57;;;7.40;99.90;;;;;;5015834;28;20205;-76
2022/01/19 11:44:04;;;;;;;11.60;6.90;;;7.50;99.90;;;;;;5028992;28;20189;-77
2022/01/19 11:46:32;;;;;;;12.30;6.93;;;7.50;99.90;;;;;;5031524;28;20189;-75
2022/01/19 11:49:01;;;;;;;10.90;7.10;;;7.40;99.90;;;;;;5012237;28;20178;-78
2022/01/19 11:51:28;;;;;;;9.73;6.83;;;7.40;99.90;;;;;;5013636;28;20177;-74
2022/01/19 11:54:19;;;;;;;12.37;7.10;;;7.50;99.90;;;;;;5011255;28;20189;-76
2022/01/19 11:57:00;;;;;;;11.10;6.60;;;7.50;99.90;;;;;;4997543;28;20186;-76
2022/01/19 11:59:30;;;;;;;15.47;6.93;;;7.50;99.90;;;;;;5011619;28;20189;-79
2022/01/19 12:02:21;;;;;;;11.47;6.67;;;7.50;99.90;;;;;;5066872;28;20172;-79
2022/01/19 12:04:50;;;;;;;13.87;7.60;;;7.60;99.90;;;;;;5066836;28;20173;-78
2022/01/19 12:07:41;;;;;;;12.20;7.10;;;7.60;99.90;;;;;;5064398;28;20196;-77
2022/01/19 12:10:09;;;;;;;10.60;6.90;;;7.60;99.90;;;;;;5068088;28;20592;-75
2022/01/19 12:12:43;;;;;;;10.77;7.17;;;7.70;99.90;;;;;;5069431;28;20173;-73
2022/01/19 12:15:51;;;;;;;13.97;7.10;;;7.80;99.90;;;;;;5040385;28;20245;-74
2022/01/19 12:18:39;;;;;;;12.13;6.90;;;7.50;99.90;;;;;;5045114;28;20263;-76
2022/01/19 12:21:05;;;;;;;10.30;6.90;;;7.50;99.90;;;;;;5033433;28;20204;-76
2022/01/19 12:23:34;;;;;;;12.23;7.23;;;7.40;99.90;;;;;;5031660;28;20526;-76
2022/01/19 12:26:03;;;;;;;9.73;6.67;;;7.40;99.90;;;;;;5048259;28;20166;-75
2022/01/19 12:28:52;;;;;;;9.83;6.20;;;7.40;99.90;;;;;;5031618;28;20280;-75
2022/01/19 12:31:24;;;;;;;12.87;6.47;;;7.40;99.90;;;;;;5031708;28;20177;-77
2022/01/19 12:34:10;;;;;;;10.67;5.70;;;7.50;99.90;;;;;;5014898;28;20173;-77
2022/01/19 12:36:47;;;;;;;11.03;6.13;;;7.50;99.90;;;;;;5014849;28;20265;-77
2022/01/19 12:39:25;;;;;;;9.73;5.77;;;7.50;99.90;;;;;;5018712;28;20260;-75
2022/01/19 12:41:58;;;;;;;12.97;5.77;;;7.60;99.90;;;;;;5051562;28;20994;-76
2022/01/19 12:44:53;;;;;;;8.23;5.33;;;7.60;99.90;;;;;;5051201;28;20173;-77
2022/01/19 12:47:25;;;;;;;11.03;5.37;;;7.70;99.90;;;;;;5035192;28;20272;-76
2022/01/19 12:49:52;;;;;;;9.40;5.53;;;7.80;99.90;;;;;;5051303;28;20550;-77
2022/01/19 12:52:18;;;;;;;9.53;5.57;;;7.80;99.90;;;;;;5051062;28;20242;-76
2022/01/19 12:54:45;;;;;;;9.87;5.47;;;7.70;99.90;;;;;;5034344;28;20231;-74
2022/01/19 12:57:15;;;;;;;7.80;5.07;;;7.50;99.90;;;;;;5051151;28;20699;-76
2022/01/19 12:59:43;;;;;;;9.57;5.13;;;7.50;99.90;;;;;;5051269;28;20205;-74
2022/01/19 13:02:13;;;;;;;8.07;5.37;;;7.60;99.90;;;;;;5034645;28;20214;-75
2022/01/19 13:04:41;;;;;;;8.53;5.17;;;7.80;99.90;;;;;;5034144;28;20925;-75
2022/01/19 13:07:26;;;;;;;8.07;5.40;;;7.80;99.90;;;;;;5050955;28;20178;-75
2022/01/19 13:10:23;;;;;;;8.30;4.40;;;7.60;99.90;;;;;;5014181;28;20213;-74
2022/01/19 13:15:21;;;;;;;9.53;5.43;;;7.60;99.90;;;;;;5035606;28;20520;-75
2022/01/19 13:17:50;;;;;;;7.27;4.73;;;7.70;99.90;;;;;;5051117;28;20185;-75
2022/01/19 13:20:20;;;;;;;8.73;5.03;;;7.70;99.90;;;;;;5051077;28;20193;-75
2022/01/19 13:22:51;;;;;;;8.67;4.50;;;7.70;99.90;;;;;;5050629;28;20512;-75
2022/01/19 13:25:22;;;;;;;6.80;4.70;;;7.50;99.90;;;;;;5050598;28;20169;-76
2022/01/19 13:27:49;;;;;;;7.40;4.87;;;7.60;99.90;;;;;;5050585;28;20180;-74
2022/01/19 13:30:17;;;;;;;8.63;4.90;;;7.70;99.90;;;;;;5033839;28;20185;-75
2022/01/19 13:32:43;;;;;;;7.80;4.57;;;7.80;99.90;;;;;;5051958;28;20647;-73
2022/01/19 13:35:11;;;;;;;8.47;4.80;;;7.70;99.90;;;;;;5017446;28;20185;-75
2022/01/19 13:37:37;;;;;;;6.73;4.50;;;7.70;99.90;;;;;;5051270;28;20177;-75
2022/01/19 13:40:07;;;;;;;10.53;5.20;;;7.70;99.90;;;;;;5050516;28;20197;-76
2022/01/19 13:42:41;;;;;;;7.80;5.40;;;7.70;99.90;;;;;;5049858;28;20404;-76
2022/01/19 13:45:10;;;;;;;7.33;5.17;;;7.80;99.90;;;;;;5027324;28;20173;-76
2022/01/19 13:50:53;;;;;;;5.83;4.60;;;7.70;99.90;;;;;;5045438;28;20197;-73
2022/01/19 13:53:29;;;;;;;6.73;4.23;;;7.90;99.90;;;;;;5033476;28;20201;-76
2022/01/19 13:55:56;;;;;;;7.67;4.53;;;7.70;99.90;;;;;;5041657;28;20188;-77
2022/01/19 13:58:32;;;;;;;6.90;4.80;;;7.70;99.90;;;;;;5010040;28;20796;-77
2022/01/19 14:01:02;;;;;;;8.37;4.40;;;7.80;99.90;;;;;;5029309;28;20198;-77
2022/01/19 14:03:45;;;;;;;6.57;5.00;;;7.70;99.90;;;;;;5012646;28;20174;-76
2022/01/19 14:06:20;;;;;;;8.23;4.63;;;7.80;99.90;;;;;;5022029;28;20261;-74
2022/01/19 14:08:46;;;;;;;8.97;4.87;;;7.80;99.90;;;;;;5033311;28;20260;-75
2022/01/19 14:11:26;;;;;;;8.43;4.40;;;7.80;99.90;;;;;;5029221;28;20265;-74
2022/01/19 14:14:10;;;;;;;6.80;4.30;;;7.90;99.90;;;;;;5040184;28;20263;-72
2022/01/19 14:16:42;;;;;;;5.90;4.43;;;8.20;99.90;;;;;;5032698;28;20193;-74
2022/01/19 14:19:12;;;;;;;8.07;4.03;;;8.00;99.90;;;;;;5044947;28;20169;-74
2022/01/19 14:22:03;;;;;;;5.93;3.27;;;8.10;99.90;;;;;;5028530;28;20223;-72
2022/01/19 14:24:44;;;;;;;5.33;3.47;;;8.00;99.90;;;;;;5045612;28;20169;-73
2022/01/19 14:27:40;;;;;;;5.70;3.70;;;8.10;99.90;;;;;;5046545;28;20176;-74
2022/01/19 14:30:14;;;;;;;6.20;3.47;;;8.00;99.90;;;;;;5047455;28;20265;-73
2022/01/19 14:32:46;;;;;;;6.27;3.50;;;7.80;99.90;;;;;;5031845;28;20187;-74
2022/01/19 14:35:39;;;;;;;5.67;3.77;;;7.90;99.90;;;;;;5050682;28;20538;-73
2022/01/19 14:38:04;;;;;;;5.17;3.23;;;7.90;99.90;;;;;;5049508;28;20173;-75
2022/01/19 14:40:33;;;;;;;4.77;3.00;;;7.90;99.90;;;;;;5032413;28;20200;-75
2022/01/19 14:43:00;;;;;;;5.17;3.33;;;7.90;99.90;;;;;;5032386;28;20510;-75
2022/01/19 14:45:34;;;;;;;4.93;3.43;;;7.80;99.90;;;;;;5050785;28;20598;-77
2022/01/19 14:48:10;;;;;;;5.90;3.10;;;8.00;99.90;;;;;;5049408;28;20219;-73